Timeline UpdatesTrip UpdatesNews PostsPvt PostsTravel TipsAdmin PostsConv PostsFollowed PostsChat RequestsBlog PostsPNR Posts

Disclaimer
Search
 
 
Sat Aug 23, 2014 05:05:21 ISTHomeTrainsΣChainsAtlasPNRForumGalleryNewsFAQTripsMembersLoginFeedback
No Recent News for this Train
Other Trains in the News **new
Latest...
.
Fri Dec 13, 2013 (03:40PM)
⇐ Return Journey: Train# 12834

12833/Ahmedabad- Howrah SF Express

Aug 26 2013 (10:42AM)
Change Departure Station:
Change Arrival Station:
Post a Train Travel TipPost a Train Travel Tip **new
Post a Comment/Question/Picture/VideoPost a Comment/Question/Picture/Video
Pantry/Catering
✓ Pantry Car Avbl
✓ Catering Avbl
RSA - Rake Sharing
Rake/Coach Composition
LOCO(SRC WAP-4)-SLR-LD-GEN-A2-A1-B2-B1-S13-S12-PC-S11-S10-S9-S8-S7-S6-S5-S4-S3-S2-S1-GEN-SLR As per Entry# 262159
Loco
Loco: SRC WAP 4 ... Entry# 289462
News    PNR    Forum    Time-Table    Availability    Fare Chart    Map    Arr/Dep History    Trips    Gallery    ΣChains    X/O    Timeline    
Travel Time: 11h 42m    14 halts    Distance: 677 km    Avg Speed: 57 km/hr
Type: SuperFast
Zone: SER/South Eastern
Departs @ 01:48 (Avg 28m late)
Platform# ???
SMTWTFS
Naila/NIA 
Arrives @ 13:30 (Avg 23m late)
Platform# 17
SMTWTFS
Kolkata Howrah Junction/HWH 

14 halts. 110 intermediate Stations between Naila and Kolkata Howrah Junction

Show ALL intermediate Stations  Show Old Time-Table

#CodeStation NameX/OArrivesAvgDepartsAvgHaltPFDay#KmSpeedElevZoneAddress
1ADIAhmedabad Junction (12)  -23:55+361-1411.62451mWRAhmedabad, Gujarat
2MANManinagar (2)  00:03+000:05+02m12-1408.46950mWRAhmadabad, Gujarat
3NDNadiad Junction (4)X  00:42+1500:44+152m12-1366.06237mWRNadiad, Gujarat
4ANNDAnand Junction (6)  01:02+1501:04+252m12-1347.54944mWRAnand, Gujarat
5BRCVadodara Junction (7)  01:48+2301:55+237m12-1311.88836mWRVadodara 390005, Gujarat
6BHBharuch Junction (5)X  02:43+3002:45+292m42-1241.25919mWRBharuch, Gujarat
7STSurat (4)X  03:45+2503:55+2410m32-1182.03419mWRSurat 395001, Gujarat
8UDNUdhna Junction (3)  04:02+2804:04+322m32-1178.06316mWRUdhna 394210, Gujarat
9BIYBardoli (2)  04:30+4104:32+422m12-1150.85935mWRNear Bardoli Sugar Factory Bardoli, Gujarat
10MIDMadhi (1)X  04:47+4704:49+472m12-1135.95345mWRMadhi, Gujarat
11VYAVyara (2)X  05:06+4905:08+492m22-1121.05590mWRVyara, Gujarat
12NWUNavapur (2)X  05:54+5205:56+1:012m--2-1079.149124mWRNavapur, Gujarat
13NDBNandurbar (3)  07:07+4707:15+458m22-1021.146203mWRNandurbar, Maharashtra
14DDEDondaicha (2)  08:00+3408:02+342m12-986.745163mWRDondaicha, Maharashtra
15SNKSindkheda (1)  08:28+2908:30+282m12-967.453178mWRState Highway 11, Maharashtra
16ANAmalner (2)  09:17+2609:20+193m12-925.862188mWRAmalner, Maharashtra
17DXGDharangaon (2)  09:44+1809:46+182m12-900.934217mWRDharangaon, Maharashtra
18JLJalgaon Junction (4)X  10:38+1310:40+172m12-871.258213mCRJalgaon 425001, Maharashtra
19BSLBhusaval Junction (8)  11:05+1711:20+1515m12-847.165208mCRBhusaval 425201, Maharashtra
20MKUMalkapur (2)X  12:06+1712:08+172m22-797.284252mCRMalkapur, Maharashtra
21NNNandura  12:28+2012:30+202m22-769.392267mCRNandura, Maharashtra
22JMJalamb Junction (3)  12:38+2212:40+222m12-757.093259mCRJalamb, Maharashtra
23SEGShegaon (2)X  12:48+2512:50+252m22-744.689281mCRShegaon 444203, Maharashtra
24AKAkola Junction (7)XO  13:15+3113:20+315m22-707.559284mCRAkola-444001, Maharashtra
25MZRMurtizapur (3)XO  13:58+2214:00+222m12-670.346303mCRMurtajapur, Maharashtra
26BDBadnera Junction (4)X  14:55+715:00+115m22-628.586335mCRBadnera (Amravati) 444701, Maharashtra
27CNDChandur (2)  15:20+1815:22+172m12-599.777331mCRAmravati Distt, Maharashtra
28DMNDhamangaon (2)X  15:35+1815:37+182m22-583.180300mCRDhamangaon, Maharashtra
29PLOPulgaon Junction (3)X  15:52+1915:54+192m12-563.168273mCRPulgaon, Maharashtra
30WRWardha Junction (4)  16:20+1816:23+173m32-533.675289mCRWardha 442001, Maharashtra
31AJNIAjni (3)  17:24+917:26+102m12-457.78310mCRNagpur 440003, Maharashtra
32NGPNagpur Junction (8)X  17:50+518:00+1010m12-454.748314mCRNagpur 440001, Maharashtra
33KPKamptee (3)X  18:18+1818:20+182m--2-440.396290mSECRMH 441001, Maharashtra
34BRDBhandara Road (2)X  18:50+2218:52+222m--2-392.477266mSECRState Highway 252, Maharashtra
35TMRTumsar Road (3)X  19:06+2319:08+222m--2-374.581267mSECRBhandara, Maharashtra
36TROTirora (3)  19:23+2519:25+262m--2-354.157282mSECRDist Gondiya, Maharashtra
37GGondia Junction (7)X  19:56+2219:58+222m22-324.891316mSECRGondia 441601, Maharashtra
38AGNAmgaon (2)X  20:13+2720:15+282m--2-302.072317mSECRGondia, Maharashtra
39DGGDongargarh (2)  20:57+2920:59+292m--2-251.586353mSECRDongargarh, Chhattisgarh
40RJNRaj Nandgaon (3)X  21:21+3021:23+302m12-220.039313mSECRRajnandgaon, Chhattisgarh
41DURGDurg Junction (6)  22:10+1622:15+185m32-189.560299mSECRPh: 91-788-2322059, Chhattisgarh
42BPHBBhilai Power House (3)X  22:24+2622:26+262m12-180.658312mSECRBhilai, Chhattisgarh
43RRaipur Junction (6)X  22:55+2023:05+1910m62-152.679297mSECRRaipur, Chhattisgarh
44TLDTilda (3)  23:34+2523:36+252m--2-114.487291mSECRBanjari Rd, Chhattisgarh
45BYTBhatapara (4)  23:54+2823:56+272m--2-88.447270mSECRBanjari Road, Chhattisgarh
46BSPBilaspur Junction (8)X  00:55+1401:10+2115m23-42.278271mSECRBilaspur, Chhattisgarh
47AKTAkaltara (4)  01:31+2701:33+272m--3-14.969284mSECRDist. Janjgir Champa, Chhattisgarh
48NIA»Naila»X  01:46+2701:48+282m--30.054273mSECRJanjgir, Chhattisgarh
49CPHChampa Junction (3)X  02:00+2802:03+333m--310.993264mSECRNational Highway 200 (07819-245767), Chhattisgarh
50BUABaradwarX  02:13+3802:15+382m--326.486256mSECRJanjgir-Champa, Chhattisgarh
51KHSKharsia  02:36+4002:38+402m--356.685259mSECRNational Highway 200, Chhattisgarh
52RIGRaigarh (3)XO  03:02+4103:07+405m--390.690220mSECRRaigarh, Chhattisgarh
53BPHBelpahar  03:41+5003:43+502m--3141.754235mSECRBelpahar, Odisha
54BRJNBrajrajnagarX  03:53+5003:55+502m--3150.611212mSECRBrajrajnagar, Odisha
55JSGJharsuguda Junction (5)X  05:00+1005:02+142m23162.281236mSERJharsuguda, Odisha
56BMBBamra (3)  05:29+1505:31+152m--3198.880259mSERBamra PH : 06642-229268, Odisha
57GPRaj Gangpur (3)X  05:57+1705:59+172m23233.454237mSERRaj Ganpur, Odisha
58ROURourkela Junction (5)  06:32+1506:47+1515m13263.275198mSERRourkela, Odisha
59CKPChakradharpur (3)X  08:08+1608:15+167m23364.257235mSERChakradharpur (West Singhbhum), Jharkhand
60TATATatanagar Junction (5)  09:20+909:35+1015m53426.579164mSER91-657-2423026, Jharkhand
61KGPKharagpur Junction (10)  11:17+1511:22+165m63561.67342mSERKharagpur, West Bengal
62SRCKolkata Santragachi Junction (6)  12:50+412:52+42m63669.2127mSERDist: Howrah - 711104, West Bengal
63HWH•Kolkata Howrah Junction (23)•  13:30+23-173676.6-10mERHowrah 711101, West Bengal
Scroll to Top
Scroll to Bottom